Terminal Aerodrome Forecast
Issued by NWS

Home | Current Version | Previous Version | Text Only | Print | Product List | Glossary Off
Versions: 1 2 3 4 5 6 7 8 9 10 11 12 13 14 15 16 17 18 19 20 21 22 23

000
FTUS43 KABR 191130
TAFMBG
TAF
KMBG 191130Z 1912/2012 VRB05KT P6SM FEW200
     FM200900 15006KT 5SM BR BKN060
     FM201100 VRB04KT 2SM BR BKN020=

USA.gov is the U.S. government's official web portal to all federal, state and local government web resources and services.